createdAt,value
2019-06-07T00:00:29.510Z,100329
2019-06-07T00:01:09.961Z,100325
2019-06-07T00:02:09.078Z,100321
2019-06-07T00:03:15.652Z,100323
2019-06-07T00:04:10.273Z,100322
2019-06-07T00:05:10.695Z,100321
2019-06-07T00:06:12.771Z,100323
2019-06-07T00:07:10.573Z,100321
2019-06-07T00:08:15.219Z,100319
2019-06-07T00:09:10.408Z,100322
2019-06-07T00:10:09.937Z,100323
2019-06-07T00:11:10.955Z,100325
2019-06-07T00:12:10.911Z,100323
2019-06-07T00:13:10.322Z,100323
2019-06-07T00:14:12.121Z,100318
2019-06-07T00:15:11.488Z,100313
2019-06-07T00:16:11.819Z,100313
2019-06-07T00:17:11.089Z,100309
2019-06-07T00:18:11.017Z,100306
2019-06-07T00:19:10.389Z,100307
2019-06-07T00:20:13.709Z,100306
2019-06-07T00:21:10.557Z,100298
2019-06-07T00:22:19.447Z,100299
2019-06-07T00:23:12.076Z,100294
2019-06-07T00:24:13.010Z,100293
2019-06-07T00:25:13.272Z,100292
2019-06-07T00:26:11.356Z,100292
2019-06-07T00:27:11.563Z,100285
2019-06-07T00:28:11.472Z,100288
2019-06-07T00:29:12.364Z,100289
2019-06-07T00:30:45.598Z,100294
2019-06-07T00:31:12.069Z,100292
2019-06-07T00:32:12.208Z,100295
2019-06-07T00:33:15.591Z,100294
2019-06-07T00:34:12.338Z,100299
2019-06-07T00:35:12.506Z,100304
2019-06-07T00:36:14.531Z,100303
2019-06-07T00:37:12.647Z,100308
2019-06-07T00:38:12.625Z,100312
2019-06-07T00:39:14.193Z,100306
2019-06-07T00:40:18.390Z,100303
2019-06-07T00:41:13.059Z,100307
2019-06-07T00:42:14.146Z,100302
2019-06-07T00:43:14.076Z,100304
2019-06-07T00:44:13.280Z,100303
2019-06-07T00:45:14.580Z,100299
2019-06-07T00:46:14.694Z,100294
2019-06-07T00:47:13.635Z,100300
2019-06-07T00:48:19.390Z,100292
2019-06-07T00:49:28.916Z,100288
2019-06-07T00:50:14.357Z,100284
2019-06-07T00:51:14.571Z,100282
2019-06-07T00:52:58.421Z,100277
2019-06-07T00:53:18.135Z,100276
2019-06-07T00:54:15.636Z,100272
2019-06-07T00:55:15.926Z,100271
2019-06-07T00:56:14.644Z,100267
2019-06-07T00:57:16.592Z,100268
2019-06-07T00:58:15.328Z,100267
2019-06-07T00:59:16.800Z,100272
2019-06-07T01:00:15.462Z,100270
2019-06-07T01:01:17.528Z,100276
2019-06-07T01:02:16.593Z,100277
2019-06-07T01:03:15.526Z,100279
2019-06-07T01:04:17.336Z,100287
2019-06-07T01:05:17.462Z,100287
2019-06-07T01:06:15.857Z,100293
2019-06-07T01:07:17.350Z,100297
2019-06-07T01:08:16.557Z,100297
2019-06-07T01:09:16.022Z,100300
2019-06-07T01:10:17.253Z,100296
2019-06-07T01:11:16.446Z,100301
2019-06-07T01:12:18.507Z,100299
2019-06-07T01:13:17.122Z,100297
2019-06-07T01:14:19.287Z,100295
2019-06-07T01:15:18.118Z,100291
2019-06-07T01:16:16.776Z,100297
2019-06-07T01:17:27.421Z,100295
2019-06-07T01:18:47.369Z,100296
2019-06-07T01:19:16.951Z,100297
2019-06-07T01:20:17.251Z,100298
2019-06-07T01:21:20.522Z,100294
2019-06-07T01:22:18.269Z,100291
2019-06-07T01:23:54.161Z,100289
2019-06-07T01:24:18.353Z,100289
2019-06-07T01:25:18.798Z,100287
2019-06-07T01:26:20.447Z,100284
2019-06-07T01:27:18.876Z,100283
2019-06-07T01:28:21.272Z,100282
2019-06-07T01:29:19.960Z,100287
2019-06-07T01:30:19.440Z,100286
2019-06-07T01:31:20.995Z,100284
2019-06-07T01:32:19.226Z,100289
2019-06-07T01:33:19.058Z,100291
2019-06-07T01:34:19.201Z,100292
2019-06-07T01:35:20.520Z,100294
2019-06-07T01:36:19.980Z,100292
2019-06-07T01:37:19.932Z,100290
2019-06-07T01:38:21.841Z,100297
2019-06-07T01:39:19.377Z,100297
2019-06-07T01:40:20.616Z,100296
2019-06-07T01:41:21.968Z,100292
2019-06-07T01:42:20.318Z,100290
2019-06-07T01:43:20.077Z,100286
2019-06-07T01:44:22.632Z,100292
2019-06-07T01:45:19.859Z,100289
2019-06-07T01:46:18.994Z,100290
2019-06-07T01:47:21.086Z,100290
2019-06-07T01:48:21.537Z,100285
2019-06-07T01:49:20.245Z,100284
2019-06-07T01:50:21.618Z,100283
2019-06-07T01:51:20.538Z,100283
2019-06-07T01:52:19.993Z,100284
2019-06-07T01:53:22.349Z,100279
2019-06-07T01:54:51.858Z,100279
2019-06-07T01:55:23.511Z,100281
2019-06-07T01:56:20.440Z,100278
2019-06-07T01:57:33.937Z,100278
2019-06-07T01:58:20.461Z,100272
2019-06-07T01:59:21.830Z,100269
2019-06-07T02:00:21.945Z,100269
2019-06-07T02:01:21.590Z,100265
2019-06-07T02:02:20.702Z,100265
2019-06-07T02:03:22.167Z,100264
2019-06-07T02:04:23.206Z,100266
2019-06-07T02:05:21.406Z,100266
2019-06-07T02:06:21.606Z,100267
2019-06-07T02:07:24.749Z,100267
2019-06-07T02:08:22.133Z,100270
2019-06-07T02:09:21.582Z,100274
2019-06-07T02:10:24.568Z,100270
2019-06-07T02:11:22.356Z,100266
2019-06-07T02:12:27.819Z,100265
2019-06-07T02:13:21.967Z,100264
2019-06-07T02:14:22.923Z,100263
2019-06-07T02:15:23.633Z,100262
2019-06-07T02:16:22.377Z,100267
2019-06-07T02:17:24.358Z,100265
2019-06-07T02:18:23.736Z,100262
2019-06-07T02:19:22.629Z,100265
2019-06-07T02:20:23.743Z,100265
2019-06-07T02:21:24.600Z,100263
2019-06-07T02:22:23.547Z,100265
2019-06-07T02:23:23.908Z,100264
2019-06-07T02:24:25.185Z,100268
2019-06-07T02:25:47.086Z,100264
2019-06-07T02:26:23.461Z,100269
2019-06-07T02:27:24.564Z,100267
2019-06-07T02:28:29.698Z,100268
2019-06-07T02:29:23.619Z,100265
2019-06-07T02:30:40.008Z,100265
2019-06-07T02:31:25.131Z,100262
2019-06-07T02:32:24.928Z,100261
2019-06-07T02:33:26.232Z,100260
2019-06-07T02:34:24.775Z,100259
2019-06-07T02:35:26.973Z,100263
2019-06-07T02:36:27.303Z,100261
2019-06-07T02:37:24.768Z,100261
2019-06-07T02:38:27.603Z,100260
2019-06-07T02:39:26.081Z,100261
2019-06-07T02:40:25.008Z,100262
2019-06-07T02:41:27.084Z,100264
2019-06-07T02:42:25.999Z,100265
2019-06-07T02:43:25.388Z,100261
2019-06-07T02:44:28.525Z,100260
2019-06-07T02:45:26.525Z,100261
2019-06-07T02:46:32.399Z,100256
2019-06-07T02:47:25.735Z,100259
2019-06-07T02:48:27.795Z,100257
2019-06-07T02:49:28.848Z,100259
2019-06-07T02:50:26.117Z,100256
2019-06-07T02:51:27.932Z,100254
2019-06-07T02:52:29.187Z,100254
2019-06-07T02:53:27.618Z,100254
2019-06-07T02:54:27.308Z,100255
2019-06-07T02:55:29.434Z,100254
2019-06-07T02:56:38.898Z,100249
2019-06-07T02:57:29.141Z,100245
2019-06-07T02:58:30.935Z,100245
2019-06-07T02:59:46.697Z,100244
2019-06-07T03:00:45.430Z,100240
2019-06-07T03:01:28.328Z,100240
2019-06-07T03:02:31.484Z,100235
2019-06-07T03:03:28.820Z,100235
2019-06-07T03:04:29.439Z,100235
2019-06-07T03:05:27.980Z,100236
2019-06-07T03:06:31.731Z,100234
2019-06-07T03:07:30.528Z,100232
2019-06-07T03:08:28.847Z,100234
2019-06-07T03:09:29.617Z,100239
2019-06-07T03:10:30.189Z,100237
2019-06-07T03:11:28.965Z,100240
2019-06-07T03:12:29.529Z,100241
2019-06-07T03:13:30.482Z,100235
2019-06-07T03:14:29.314Z,100235
2019-06-07T03:15:35.107Z,100235
2019-06-07T03:16:29.405Z,100237
2019-06-07T03:17:30.327Z,100230
2019-06-07T03:18:30.427Z,100233
2019-06-07T03:19:29.441Z,100234
2019-06-07T03:20:31.560Z,100238
2019-06-07T03:21:29.844Z,100234
2019-06-07T03:22:29.823Z,100235
2019-06-07T03:23:29.284Z,100233
2019-06-07T03:24:31.326Z,100232
2019-06-07T03:25:29.005Z,100227
2019-06-07T03:26:31.123Z,100234
2019-06-07T03:27:35.792Z,100229
2019-06-07T03:28:30.726Z,100229
2019-06-07T03:29:30.328Z,100229
2019-06-07T03:30:51.879Z,100229
2019-06-07T03:31:32.454Z,100235
2019-06-07T03:32:34.438Z,100227
2019-06-07T03:33:29.944Z,100230
2019-06-07T03:34:34.044Z,100228
2019-06-07T03:35:31.254Z,100231
2019-06-07T03:36:30.483Z,100227
2019-06-07T03:37:30.602Z,100227
2019-06-07T03:38:31.944Z,100227
2019-06-07T03:39:29.909Z,100225
2019-06-07T03:40:29.891Z,100227
2019-06-07T03:41:34.244Z,100230
2019-06-07T03:42:29.926Z,100229
2019-06-07T03:43:30.451Z,100230
2019-06-07T03:44:32.854Z,100230
2019-06-07T03:45:30.688Z,100230
2019-06-07T03:46:30.577Z,100231
2019-06-07T03:47:32.252Z,100227
2019-06-07T03:48:30.598Z,100230
2019-06-07T03:49:31.415Z,100227
2019-06-07T03:50:32.260Z,100222
2019-06-07T03:51:30.552Z,100224
2019-06-07T03:52:31.238Z,100223
2019-06-07T03:53:31.078Z,100227
2019-06-07T03:54:30.279Z,100226
2019-06-07T03:55:31.050Z,100226
2019-06-07T03:56:31.729Z,100222
2019-06-07T03:57:30.828Z,100224
2019-06-07T03:58:32.493Z,100218
2019-06-07T03:59:32.040Z,100218
2019-06-07T04:00:32.852Z,100215
2019-06-07T04:01:30.670Z,100217
2019-06-07T04:02:30.944Z,100217
2019-06-07T04:03:35.899Z,100213
2019-06-07T04:04:30.609Z,100213
2019-06-07T04:05:32.647Z,100210
2019-06-07T04:06:32.427Z,100211
2019-06-07T04:07:31.082Z,100214
2019-06-07T04:08:31.355Z,100211
2019-06-07T04:09:32.152Z,100209
2019-06-07T04:10:48.146Z,100212
2019-06-07T04:11:30.982Z,100210
2019-06-07T04:12:32.410Z,100210
2019-06-07T04:13:34.716Z,100206
2019-06-07T04:14:31.258Z,100202
2019-06-07T04:15:31.887Z,100200
2019-06-07T04:16:33.306Z,100199
2019-06-07T04:17:32.643Z,100201
2019-06-07T04:18:31.308Z,100195
2019-06-07T04:19:32.066Z,100192
2019-06-07T04:20:32.846Z,100190
2019-06-07T04:21:31.863Z,100187
2019-06-07T04:22:31.988Z,100190
2019-06-07T04:23:33.483Z,100188
2019-06-07T04:24:31.672Z,100192
2019-06-07T04:25:32.405Z,100190
2019-06-07T04:26:32.766Z,100190
2019-06-07T04:27:31.366Z,100186
2019-06-07T04:29:24.715Z,100188
2019-06-07T04:29:33.713Z,100187
2019-06-07T04:30:32.774Z,100190
2019-06-07T04:31:32.545Z,100188
2019-06-07T04:32:31.985Z,100186
2019-06-07T04:33:31.792Z,100186
2019-06-07T04:34:33.740Z,100187
2019-06-07T04:35:32.871Z,100186
2019-06-07T04:36:45.342Z,100189
2019-06-07T04:37:31.709Z,100185
2019-06-07T04:38:32.600Z,100185
2019-06-07T04:39:33.922Z,100179
2019-06-07T04:40:32.231Z,100181
2019-06-07T04:41:31.819Z,100175
2019-06-07T04:42:34.905Z,100181
2019-06-07T04:43:32.217Z,100171
2019-06-07T04:44:31.868Z,100171
2019-06-07T04:45:36.064Z,100169
2019-06-07T04:46:32.180Z,100166
2019-06-07T04:47:33.717Z,100166
2019-06-07T04:48:33.199Z,100162
2019-06-07T04:49:33.329Z,100163
2019-06-07T04:50:34.176Z,100164
2019-06-07T04:51:32.286Z,100162
2019-06-07T04:52:33.308Z,100166
2019-06-07T04:53:35.152Z,100159
2019-06-07T04:54:33.347Z,100156
2019-06-07T04:55:32.164Z,100155
2019-06-07T04:56:33.560Z,100155
2019-06-07T04:57:33.412Z,100158
2019-06-07T04:58:32.009Z,100155
2019-06-07T05:00:03.962Z,100156
2019-06-07T05:00:53.880Z,100155
2019-06-07T05:01:32.739Z,100151
2019-06-07T05:02:32.569Z,100150
2019-06-07T05:03:35.985Z,100150
2019-06-07T05:04:33.121Z,100145
2019-06-07T05:05:32.501Z,100150
2019-06-07T05:06:34.781Z,100144
2019-06-07T05:07:32.901Z,100145
2019-06-07T05:08:33.849Z,100152
2019-06-07T05:09:33.165Z,100149
2019-06-07T05:10:35.026Z,100145
2019-06-07T05:11:33.849Z,100145
2019-06-07T05:12:33.184Z,100143
2019-06-07T05:13:35.751Z,100142
2019-06-07T05:14:33.135Z,100138
2019-06-07T05:15:32.807Z,100140
2019-06-07T05:16:35.144Z,100139
2019-06-07T05:17:33.181Z,100135
2019-06-07T05:18:33.567Z,100136
2019-06-07T05:19:35.129Z,100142
2019-06-07T05:20:34.097Z,100139
2019-06-07T05:21:52.738Z,100138
2019-06-07T05:22:34.776Z,100140
2019-06-07T05:24:35.469Z,100143
2019-06-07T05:25:34.002Z,100141
2019-06-07T05:26:33.579Z,100139
2019-06-07T05:27:34.268Z,100142
2019-06-07T05:28:33.141Z,100141
2019-06-07T05:29:33.918Z,100137
2019-06-07T05:31:35.733Z,100135
2019-06-07T05:32:34.901Z,100134
2019-06-07T05:33:35.438Z,100135
2019-06-07T05:34:34.496Z,100138
2019-06-07T05:35:33.725Z,100133
2019-06-07T05:36:36.576Z,100140
2019-06-07T05:37:34.231Z,100142
2019-06-07T05:38:34.151Z,100143
2019-06-07T05:39:36.784Z,100138
2019-06-07T05:40:34.782Z,100136
2019-06-07T05:41:34.651Z,100135
2019-06-07T05:42:35.254Z,100132
2019-06-07T05:43:36.481Z,100129
2019-06-07T05:44:34.754Z,100129
2019-06-07T05:45:35.672Z,100130
2019-06-07T05:46:38.476Z,100131
2019-06-07T05:47:38.379Z,100128
2019-06-07T05:48:34.989Z,100125
2019-06-07T05:49:36.289Z,100127
2019-06-07T05:50:44.651Z,100124
2019-06-07T05:51:35.268Z,100121
2019-06-07T05:52:36.865Z,100117
2019-06-07T05:53:35.515Z,100114
2019-06-07T05:54:36.430Z,100117
2019-06-07T05:55:35.792Z,100112
2019-06-07T05:56:36.433Z,100109
2019-06-07T05:57:37.573Z,100104
2019-06-07T05:58:36.029Z,100103
2019-06-07T05:59:38.203Z,100104
2019-06-07T06:00:36.784Z,100102
2019-06-07T06:01:53.003Z,100104
2019-06-07T06:02:56.522Z,100101
2019-06-07T06:03:36.538Z,100109
2019-06-07T06:04:37.239Z,100109
2019-06-07T06:05:39.824Z,100106
2019-06-07T06:06:36.938Z,100110
2019-06-07T06:07:39.411Z,100111
2019-06-07T06:08:38.082Z,100110
2019-06-07T06:09:36.867Z,100111
2019-06-07T06:10:37.559Z,100107
2019-06-07T06:11:49.122Z,100109
2019-06-07T06:12:40.525Z,100105
2019-06-07T06:13:49.298Z,100102
2019-06-07T06:14:39.496Z,100097
2019-06-07T06:15:45.047Z,100097
2019-06-07T06:16:37.743Z,100100
2019-06-07T06:17:41.309Z,100101
2019-06-07T06:18:38.827Z,100090
2019-06-07T06:19:40.554Z,100087
2019-06-07T06:21:00.711Z,100088
2019-06-07T06:21:39.223Z,100087
2019-06-07T06:22:40.871Z,100089
2019-06-07T06:23:41.084Z,100086
2019-06-07T06:24:39.874Z,100084
2019-06-07T06:25:42.412Z,100080
2019-06-07T06:26:43.747Z,100082
2019-06-07T06:28:05.712Z,100081
2019-06-07T06:28:38.734Z,100080
2019-06-07T06:29:40.494Z,100072
2019-06-07T06:30:38.973Z,100077
2019-06-07T06:31:41.915Z,100076
2019-06-07T06:32:42.776Z,100072
2019-06-07T06:33:40.373Z,100068
2019-06-07T06:34:41.713Z,100064
2019-06-07T06:35:40.696Z,100067
2019-06-07T06:36:40.428Z,100070
2019-06-07T06:37:42.319Z,100072
2019-06-07T06:38:40.026Z,100070
2019-06-07T06:39:40.234Z,100071
2019-06-07T06:40:43.248Z,100072
2019-06-07T06:41:49.275Z,100072
2019-06-07T06:42:40.518Z,100075
2019-06-07T06:43:42.140Z,100077
2019-06-07T06:44:42.487Z,100075
2019-06-07T06:45:40.980Z,100072
2019-06-07T06:46:44.493Z,100076
2019-06-07T06:47:41.299Z,100079
2019-06-07T06:48:45.286Z,100084
2019-06-07T06:49:42.063Z,100080
2019-06-07T06:50:41.681Z,100085
2019-06-07T06:51:42.861Z,100084
2019-06-07T06:52:43.916Z,100090
2019-06-07T06:53:42.122Z,100088
2019-06-07T06:54:46.484Z,100082
2019-06-07T06:55:42.088Z,100076
2019-06-07T06:56:43.899Z,100081
2019-06-07T06:57:42.138Z,100079
2019-06-07T06:59:21.300Z,100077
2019-06-07T06:59:43.612Z,100081
2019-06-07T07:00:50.156Z,100073
2019-06-07T07:01:43.057Z,100066
2019-06-07T07:03:30.862Z,100067
2019-06-07T07:03:59.923Z,100070
2019-06-07T07:04:43.916Z,100065
2019-06-07T07:05:43.904Z,100068
2019-06-07T07:06:44.160Z,100070
2019-06-07T07:07:43.497Z,100066
2019-06-07T07:08:44.086Z,100066
2019-06-07T07:09:47.528Z,100059
2019-06-07T07:10:44.077Z,100056
2019-06-07T07:11:54.966Z,100057
2019-06-07T07:12:43.797Z,100054
2019-06-07T07:13:45.201Z,100060
2019-06-07T07:14:45.923Z,100057
2019-06-07T07:15:45.275Z,100058
2019-06-07T07:16:45.666Z,100053
2019-06-07T07:17:53.558Z,100055
2019-06-07T07:18:44.811Z,100054
2019-06-07T07:19:46.971Z,100042
2019-06-07T07:20:45.807Z,100053
2019-06-07T07:21:45.704Z,100054
2019-06-07T07:22:46.266Z,100053
2019-06-07T07:24:05.315Z,100056
2019-06-07T07:24:45.023Z,100050
2019-06-07T07:25:46.824Z,100050
2019-06-07T07:26:46.696Z,100055
2019-06-07T07:27:45.197Z,100056
2019-06-07T07:28:46.443Z,100055
2019-06-07T07:29:47.781Z,100054
2019-06-07T07:30:45.549Z,100044
2019-06-07T07:31:46.210Z,100048
2019-06-07T07:32:47.066Z,100051
2019-06-07T07:34:23.612Z,100049
2019-06-07T07:34:47.723Z,100040
2019-06-07T07:36:48.112Z,100030
2019-06-07T07:37:48.818Z,100029
2019-06-07T07:38:51.584Z,100032
2019-06-07T07:39:48.509Z,100030
2019-06-07T07:42:47.448Z,100019
2019-06-07T07:43:52.763Z,100024
2019-06-07T07:44:47.080Z,100023
2019-06-07T07:45:50.957Z,100024
2019-06-07T07:46:47.170Z,100025
2019-06-07T07:48:01.694Z,100016
2019-06-07T07:48:46.782Z,100016
2019-06-07T07:49:48.266Z,100018
2019-06-07T07:50:49.546Z,100017
2019-06-07T07:51:47.101Z,100009
2019-06-07T07:52:48.952Z,100003
2019-06-07T07:53:53.050Z,100003
2019-06-07T07:54:47.299Z,100001
2019-06-07T07:55:50.294Z,99997
2019-06-07T07:56:47.433Z,99997
2019-06-07T07:57:49.356Z,99996
2019-06-07T07:58:51.037Z,99998
2019-06-07T08:00:01.411Z,99997
2019-06-07T08:00:53.768Z,99993
2019-06-07T08:01:49.135Z,99996
2019-06-07T08:02:50.493Z,99995
2019-06-07T08:03:48.917Z,99986
2019-06-07T08:05:49.575Z,99981
2019-06-07T08:06:49.469Z,99984
2019-06-07T08:07:51.866Z,99977
2019-06-07T08:08:49.575Z,99970
2019-06-07T08:09:51.328Z,99973
2019-06-07T08:10:52.507Z,99969
2019-06-07T08:11:49.907Z,99969
2019-06-07T08:13:01.694Z,99979
2019-06-07T08:13:48.975Z,99971
2019-06-07T08:14:51.008Z,99963
2019-06-07T08:15:53.219Z,99966
2019-06-07T08:16:50.227Z,99963
2019-06-07T08:17:51.322Z,99965
2019-06-07T08:18:53.207Z,99967
2019-06-07T08:19:49.833Z,99965
2019-06-07T08:21:08.484Z,99962
2019-06-07T08:21:49.400Z,99950
2019-06-07T08:22:50.622Z,99950
2019-06-07T08:23:51.435Z,99957
2019-06-07T08:24:51.922Z,99950
2019-06-07T08:25:49.819Z,99950
2019-06-07T08:27:10.335Z,99945
2019-06-07T08:27:50.173Z,99945
2019-06-07T08:28:53.051Z,99942
2019-06-07T08:30:07.691Z,99944
2019-06-07T08:30:54.882Z,99934
2019-06-07T08:31:51.436Z,99935
2019-06-07T08:32:52.997Z,99936
2019-06-07T08:33:50.950Z,99931
2019-06-07T08:34:53.279Z,99934
2019-06-07T08:36:06.999Z,99930
2019-06-07T08:36:52.160Z,99926
2019-06-07T08:38:54.732Z,99922
2019-06-07T08:39:52.719Z,99921
2019-06-07T08:40:56.636Z,99908
2019-06-07T08:43:53.883Z,99897
2019-06-07T08:44:54.208Z,99896
2019-06-07T08:45:58.256Z,99893
2019-06-07T08:47:00.492Z,99892
2019-06-07T08:47:57.861Z,99888
2019-06-07T08:48:53.862Z,99887
2019-06-07T08:49:56.683Z,99884
2019-06-07T08:50:55.239Z,99884
2019-06-07T08:51:57.539Z,99885
2019-06-07T08:52:56.867Z,99884
2019-06-07T08:54:54.777Z,99877
2019-06-07T08:55:58.710Z,99879
2019-06-07T08:56:55.671Z,99881
2019-06-07T08:57:57.133Z,99879
2019-06-07T08:58:56.780Z,99876
2019-06-07T08:59:56.426Z,99875
2019-06-07T09:00:56.184Z,99869
2019-06-07T09:01:58.368Z,99876
2019-06-07T09:02:55.548Z,99871
2019-06-07T09:04:00.103Z,99871
2019-06-07T09:04:56.897Z,99871
2019-06-07T09:05:56.960Z,99868
2019-06-07T09:08:56.008Z,99862
2019-06-07T09:10:01.654Z,99858
2019-06-07T09:10:56.939Z,99856
2019-06-07T09:11:57.066Z,99857
2019-06-07T09:13:00.195Z,99852
2019-06-07T09:13:57.626Z,99859
2019-06-07T09:15:58.700Z,99862
2019-06-07T09:17:01.127Z,99864
2019-06-07T09:18:32.700Z,99863
2019-06-07T09:18:58.903Z,99866
2019-06-07T09:19:58.830Z,99868
2019-06-07T09:20:58.099Z,99874
2019-06-07T09:22:01.483Z,99867
2019-06-07T09:23:01.518Z,99863
2019-06-07T09:24:00.159Z,99867
2019-06-07T09:25:02.666Z,99868
2019-06-07T09:26:06.277Z,99864
2019-06-07T09:27:00.976Z,99863
2019-06-07T09:28:04.175Z,99857
2019-06-07T09:29:01.148Z,99855
2019-06-07T09:30:03.081Z,99860
2019-06-07T09:31:00.183Z,99854
2019-06-07T09:32:00.457Z,99853
2019-06-07T09:32:59.341Z,99853
2019-06-07T09:34:04.550Z,99852
2019-06-07T09:34:59.985Z,99852
2019-06-07T09:36:01.393Z,99845
2019-06-07T09:37:04.159Z,99841
2019-06-07T09:38:17.421Z,99845
2019-06-07T09:39:02.473Z,99847
2019-06-07T09:40:05.164Z,99838
2019-06-07T09:41:00.361Z,99834
2019-06-07T09:42:01.512Z,99835
2019-06-07T09:45:01.070Z,99822
2019-06-07T09:46:01.979Z,99831
2019-06-07T09:48:02.190Z,99825
2019-06-07T09:49:28.146Z,99821
2019-06-07T09:50:02.218Z,99821
2019-06-07T09:51:00.818Z,99815
2019-06-07T09:52:00.399Z,99812
2019-06-07T09:53:09.971Z,99814
2019-06-07T09:54:01.135Z,99805
2019-06-07T09:55:06.949Z,99801
2019-06-07T09:56:03.421Z,99805
2019-06-07T09:57:02.550Z,99797
2019-06-07T09:58:03.527Z,99805
2019-06-07T09:59:03.615Z,99798
2019-06-07T09:59:59.925Z,99795
2019-06-07T10:01:04.397Z,99797
2019-06-07T10:02:01.393Z,99796
2019-06-07T10:03:05.458Z,99793
2019-06-07T10:04:04.456Z,99789
2019-06-07T10:05:02.197Z,99789
2019-06-07T10:06:03.315Z,99792
2019-06-07T10:07:08.850Z,99793
2019-06-07T10:08:12.934Z,99780
2019-06-07T10:10:04.563Z,99785
2019-06-07T10:11:01.435Z,99774
2019-06-07T10:12:01.043Z,99774
2019-06-07T10:13:02.418Z,99776
2019-06-07T10:14:01.284Z,99766
2019-06-07T10:15:01.479Z,99777
2019-06-07T10:16:01.471Z,99764
2019-06-07T10:17:01.686Z,99764
2019-06-07T10:18:01.590Z,99764
2019-06-07T10:19:02.050Z,99761
2019-06-07T10:20:02.478Z,99758
2019-06-07T10:21:02.065Z,99762
2019-06-07T10:22:02.007Z,99760
2019-06-07T10:23:02.166Z,99758
2019-06-07T10:24:02.235Z,99758
2019-06-07T10:25:02.821Z,99768
2019-06-07T10:26:02.645Z,99767
2019-06-07T10:27:02.488Z,99762
2019-06-07T10:28:02.497Z,99758
2019-06-07T10:29:02.883Z,99756
2019-06-07T10:30:02.676Z,99764
2019-06-07T10:31:02.818Z,99756
2019-06-07T10:32:03.221Z,99758
2019-06-07T10:33:02.999Z,99767
2019-06-07T10:34:03.044Z,99763
2019-06-07T10:35:03.566Z,99761
2019-06-07T10:36:03.263Z,99752
2019-06-07T10:37:05.189Z,99750
2019-06-07T10:38:03.356Z,99753
2019-06-07T10:39:03.464Z,99755
2019-06-07T10:40:03.659Z,99754
2019-06-07T10:41:03.655Z,99756
2019-06-07T10:42:04.431Z,99761
2019-06-07T10:43:03.746Z,99756
2019-06-07T10:44:04.208Z,99761
2019-06-07T10:45:04.816Z,99756
2019-06-07T10:46:04.235Z,99757
2019-06-07T10:47:04.509Z,99754
2019-06-07T10:48:04.398Z,99757
2019-06-07T10:49:04.686Z,99753
2019-06-07T10:50:04.719Z,99747
2019-06-07T10:51:04.837Z,99751
2019-06-07T10:52:06.489Z,99746
2019-06-07T10:53:05.095Z,99750
2019-06-07T10:54:09.768Z,99749
2019-06-07T10:55:05.337Z,99745
2019-06-07T10:56:05.507Z,99748
2019-06-07T10:57:09.101Z,99745
2019-06-07T10:58:05.692Z,99748
2019-06-07T10:59:05.685Z,99752
2019-06-07T11:00:05.842Z,99742
2019-06-07T11:01:06.009Z,99742
2019-06-07T11:02:06.233Z,99743
2019-06-07T11:03:06.385Z,99741
2019-06-07T11:04:06.358Z,99735
2019-06-07T11:05:06.452Z,99725
2019-06-07T11:06:06.526Z,99720
2019-06-07T11:07:06.833Z,99721
2019-06-07T11:08:06.800Z,99720
2019-06-07T11:09:06.699Z,99716
2019-06-07T11:10:11.509Z,99714
2019-06-07T11:11:06.832Z,99714
2019-06-07T11:12:07.055Z,99710
2019-06-07T11:13:07.007Z,99716
2019-06-07T11:14:07.207Z,99712
2019-06-07T11:15:07.344Z,99705
2019-06-07T11:16:07.481Z,99710
2019-06-07T11:17:07.764Z,99706
2019-06-07T11:18:08.837Z,99706
2019-06-07T11:19:12.029Z,99706
2019-06-07T11:20:08.858Z,99701
2019-06-07T11:21:08.832Z,99702
2019-06-07T11:22:08.882Z,99695
2019-06-07T11:23:08.893Z,99695
2019-06-07T11:24:08.925Z,99695
2019-06-07T11:25:09.548Z,99688
2019-06-07T11:26:09.028Z,99686
2019-06-07T11:27:09.582Z,99692
2019-06-07T11:28:09.107Z,99680
2019-06-07T11:29:09.325Z,99675
2019-06-07T11:30:09.161Z,99678
2019-06-07T11:31:09.316Z,99680
2019-06-07T11:32:09.171Z,99677
2019-06-07T11:33:09.317Z,99673
2019-06-07T11:34:09.285Z,99673
2019-06-07T11:35:09.332Z,99667
2019-06-07T11:36:09.328Z,99666
2019-06-07T11:37:09.756Z,99653
2019-06-07T11:38:09.355Z,99651
2019-06-07T11:39:09.611Z,99650
2019-06-07T11:40:27.654Z,99645
2019-06-07T11:41:10.381Z,99644
2019-06-07T11:42:08.524Z,99647
2019-06-07T11:43:09.511Z,99648
2019-06-07T11:44:09.605Z,99647
2019-06-07T11:45:08.582Z,99642
2019-06-07T11:46:09.762Z,99648
2019-06-07T11:47:08.844Z,99638
2019-06-07T11:48:09.972Z,99637
2019-06-07T11:49:09.054Z,99634
2019-06-07T11:50:10.235Z,99632
2019-06-07T11:51:09.281Z,99632
2019-06-07T11:52:10.205Z,99630
2019-06-07T11:53:09.267Z,99632
2019-06-07T11:54:10.458Z,99629
2019-06-07T11:55:09.765Z,99629
2019-06-07T11:56:10.717Z,99626
2019-06-07T11:57:09.684Z,99624
2019-06-07T11:58:13.027Z,99616
2019-06-07T11:59:09.991Z,99615
2019-06-07T12:00:10.018Z,99617
2019-06-07T12:01:10.152Z,99615
2019-06-07T12:02:09.999Z,99614
2019-06-07T12:03:10.176Z,99612
2019-06-07T12:04:10.273Z,99606
2019-06-07T12:05:13.496Z,99602
2019-06-07T12:06:10.576Z,99610
2019-06-07T12:07:12.421Z,99617
2019-06-07T12:08:10.741Z,99606
2019-06-07T12:09:11.034Z,99608
2019-06-07T12:10:11.207Z,99600
2019-06-07T12:11:11.057Z,99603
2019-06-07T12:12:11.377Z,99600
2019-06-07T12:13:11.242Z,99598
2019-06-07T12:14:11.434Z,99606
2019-06-07T12:15:11.588Z,99602
2019-06-07T12:16:11.852Z,99597
2019-06-07T12:17:12.040Z,99606
2019-06-07T12:18:11.924Z,99599
2019-06-07T12:19:12.251Z,99599
2019-06-07T12:20:13.243Z,99588
2019-06-07T12:21:12.314Z,99581
2019-06-07T12:22:12.501Z,99584
2019-06-07T12:23:12.650Z,99571
2019-06-07T12:24:12.886Z,99561
2019-06-07T12:25:14.967Z,99563
2019-06-07T12:26:13.161Z,99568
2019-06-07T12:27:13.305Z,99567
2019-06-07T12:28:13.451Z,99560
2019-06-07T12:29:13.621Z,99551
2019-06-07T12:30:20.186Z,99558
2019-06-07T12:31:13.816Z,99557
2019-06-07T12:32:13.969Z,99558
2019-06-07T12:33:14.153Z,99555
2019-06-07T12:34:14.165Z,99562
2019-06-07T12:35:14.295Z,99559
2019-06-07T12:36:14.408Z,99562
2019-06-07T12:37:17.694Z,99565
2019-06-07T12:38:15.044Z,99576
2019-06-07T12:39:14.856Z,99560
2019-06-07T12:40:19.019Z,99556
2019-06-07T12:41:15.011Z,99559
2019-06-07T12:42:15.296Z,99556
2019-06-07T12:43:15.221Z,99556
2019-06-07T12:44:15.281Z,99550
2019-06-07T12:45:32.255Z,99548
2019-06-07T12:46:20.828Z,99551
2019-06-07T12:47:15.735Z,99542
2019-06-07T12:48:18.843Z,99538
2019-06-07T12:49:15.815Z,99540
2019-06-07T12:50:16.013Z,99541
2019-06-07T12:51:15.968Z,99530
2019-06-07T12:52:18.121Z,99539
2019-06-07T12:53:16.352Z,99539
2019-06-07T12:54:16.282Z,99539
2019-06-07T12:55:16.471Z,99530